Arlington, Virginia
Current Conditions -  °F | °C
As of 9:52 PM on Saturday 22 Nov 2014 (Local Time) from KDCA Reporting Station
Overcast Overcast  
Wind Chill: 40°   Ceiling: 12000
Heat Index: 44°   Visibility: 10mi
Dew Point: 23°   Wind: 8mph
Humidity: 43%   Direction: 190°S
Pressure: 30.29"   Gusts: NA
Location:  38.89°N, 77.09°W
Report Text: KDCA 230252Z 19007KT 10SM OVC120 07/M05 A3029 RMK AO2 SLP256 T00671050 56008
Loading
Personal Weather Stations






























Interactive Weather Map New forecast layout! Learn more

10-Day Weather Forecast

Advertisements
Track Severe Weather on mobile